Time;durP1;ratioP1;P1;durP2;ratioP2;P2;SDS_P1;SDS_P2;PMS_P1;PMS_P2;Temp;Humidity;BMP_temperature;BMP_pressure;BME280_temperature;BME280_humidity;BME280_pressure;Samples;Min_cycle;Max_cycle;Signal;HPM_P1;HPM_P2
2023/05/16 00:01:28;;;;;;;392.33;368.40;;;9.90;62.00;;;;;;5013935;28;20226;-72
2023/05/16 00:03:55;;;;;;;389.10;368.07;;;9.90;62.00;;;;;;5013727;28;20267;-74
2023/05/16 00:06:21;;;;;;;407.63;384.27;;;9.80;62.20;;;;;;5013226;28;20443;-73
2023/05/16 00:08:47;;;;;;;350.73;329.83;;;9.90;62.10;;;;;;5013799;28;20407;-73
2023/05/16 00:11:13;;;;;;;367.57;345.77;;;9.80;62.00;;;;;;5013655;28;20420;-72
2023/05/16 00:13:41;;;;;;;437.63;411.23;;;9.80;62.00;;;;;;5013372;28;20481;-73
2023/05/16 00:16:07;;;;;;;339.70;319.97;;;9.80;62.00;;;;;;5012092;28;20200;-73
2023/05/16 00:18:36;;;;;;;351.13;330.57;;;9.70;63.40;;;;;;5013701;28;20861;-74
2023/05/16 00:21:02;;;;;;;387.70;366.37;;;9.70;63.10;;;;;;5013496;28;20488;-74
2023/05/16 00:23:28;;;;;;;388.50;366.90;;;9.70;62.10;;;;;;5013261;28;20816;-75
2023/05/16 00:25:53;;;;;;;343.57;323.47;;;9.70;63.50;;;;;;5013335;28;20485;-73
2023/05/16 00:28:18;;;;;;;344.20;324.47;;;9.70;62.90;;;;;;5013162;28;20194;-73
2023/05/16 00:30:44;;;;;;;400.83;379.03;;;9.60;63.50;;;;;;5013159;28;20184;-73
2023/05/16 00:33:10;;;;;;;392.43;370.63;;;9.60;64.30;;;;;;5012892;28;20176;-74
2023/05/16 00:35:35;;;;;;;367.33;346.67;;;9.60;63.00;;;;;;5012889;28;20249;-73
2023/05/16 00:38:06;;;;;;;389.30;367.17;;;9.50;62.70;;;;;;5013372;28;20605;-74
2023/05/16 00:40:32;;;;;;;290.73;272.97;;;9.50;64.20;;;;;;5013116;28;20211;-74
2023/05/16 00:42:58;;;;;;;376.60;355.20;;;9.50;64.30;;;;;;5012752;28;20419;-72
2023/05/16 00:45:23;;;;;;;428.83;403.90;;;9.40;64.30;;;;;;5012724;28;20231;-72
2023/05/16 00:47:50;;;;;;;462.20;433.77;;;9.40;66.10;;;;;;5011439;28;20183;-72
2023/05/16 00:50:17;;;;;;;369.80;348.80;;;9.40;65.50;;;;;;5012812;28;20176;-72
2023/05/16 00:52:42;;;;;;;342.77;322.37;;;9.40;65.50;;;;;;5012497;28;20434;-72
2023/05/16 00:55:12;;;;;;;346.43;326.23;;;9.40;66.00;;;;;;5012911;28;20422;-73
2023/05/16 00:57:38;;;;;;;274.00;256.70;;;9.40;66.10;;;;;;5012644;28;20595;-73
2023/05/16 01:00:08;;;;;;;374.13;352.57;;;9.40;66.10;;;;;;5012700;28;20429;-73
2023/05/16 01:02:34;;;;;;;315.20;296.00;;;9.40;66.30;;;;;;5011439;28;20488;-73
2023/05/16 01:05:00;;;;;;;392.33;370.23;;;9.40;67.00;;;;;;5000424;28;20455;-73
2023/05/16 01:07:25;;;;;;;379.10;357.03;;;9.40;66.80;;;;;;5001820;28;20940;-72
2023/05/16 01:09:52;;;;;;;416.27;393.23;;;9.40;66.60;;;;;;5003189;28;20415;-72
2023/05/16 01:12:42;;;;;;;365.77;344.37;;;9.40;67.40;;;;;;5000070;28;20227;-73
2023/05/16 01:15:12;;;;;;;353.30;332.93;;;9.40;66.60;;;;;;4991494;28;20422;-73
2023/05/16 01:17:43;;;;;;;368.53;347.63;;;9.30;66.80;;;;;;4991602;28;20462;-73
2023/05/16 01:20:35;;;;;;;413.23;389.27;;;9.30;68.80;;;;;;4992359;28;20901;-73
2023/05/16 01:23:15;;;;;;;275.37;258.50;;;9.30;68.50;;;;;;4992252;28;20416;-73
2023/05/16 01:25:47;;;;;;;365.67;344.67;;;9.40;68.80;;;;;;4992378;28;21026;-73
2023/05/16 01:28:15;;;;;;;321.40;302.53;;;9.40;69.50;;;;;;4992359;28;20578;-73
2023/05/16 01:30:41;;;;;;;332.33;313.03;;;9.40;69.40;;;;;;4992568;28;20424;-73
2023/05/16 01:33:07;;;;;;;349.90;329.17;;;9.50;69.40;;;;;;4991994;28;20423;-73
2023/05/16 01:35:54;;;;;;;406.07;382.73;;;9.50;68.50;;;;;;4992186;28;20184;-73
2023/05/16 01:38:29;;;;;;;344.47;324.67;;;9.50;69.20;;;;;;4992434;28;20768;-73
2023/05/16 01:41:13;;;;;;;449.60;424.87;;;9.60;68.50;;;;;;4992375;28;20768;-73
2023/05/16 01:43:44;;;;;;;331.47;312.57;;;9.70;67.90;;;;;;4991896;28;20407;-73
2023/05/16 01:46:13;;;;;;;326.70;306.67;;;9.80;67.60;;;;;;4992076;28;20467;-73
2023/05/16 01:48:55;;;;;;;372.37;350.57;;;9.80;66.50;;;;;;4995521;28;20436;-73
2023/05/16 01:51:22;;;;;;;408.53;385.50;;;9.90;66.40;;;;;;5001129;28;20510;-72
2023/05/16 01:53:49;;;;;;;420.47;397.67;;;10.00;64.60;;;;;;5005938;28;21086;-72
2023/05/16 01:56:15;;;;;;;438.47;413.57;;;10.00;63.80;;;;;;5011629;28;20963;-72
2023/05/16 01:58:42;;;;;;;374.23;352.57;;;10.10;64.30;;;;;;5011776;28;20462;-73
2023/05/16 02:01:08;;;;;;;388.97;366.23;;;10.10;63.50;;;;;;5011805;28;20433;-72
2023/05/16 02:03:34;;;;;;;364.63;343.77;;;10.20;62.70;;;;;;5011391;28;20415;-72
2023/05/16 02:06:00;;;;;;;443.37;418.80;;;10.30;62.80;;;;;;5011481;28;20689;-72
2023/05/16 02:08:27;;;;;;;364.27;343.03;;;10.30;62.40;;;;;;5011526;28;20415;-72
2023/05/16 02:10:52;;;;;;;399.93;375.43;;;10.40;62.50;;;;;;5011518;28;20430;-72
2023/05/16 02:13:18;;;;;;;465.80;438.57;;;10.40;63.40;;;;;;5011236;28;20419;-72
2023/05/16 02:15:43;;;;;;;400.03;376.77;;;10.50;62.30;;;;;;5011465;28;20208;-72
2023/05/16 02:18:09;;;;;;;365.13;343.83;;;10.60;61.70;;;;;;5010166;28;20197;-72
2023/05/16 02:20:35;;;;;;;321.07;301.27;;;10.60;61.70;;;;;;5012016;28;20431;-72
2023/05/16 02:23:02;;;;;;;488.43;458.80;;;10.70;61.70;;;;;;5011258;28;20420;-72
2023/05/16 02:25:28;;;;;;;382.87;359.83;;;10.70;59.70;;;;;;5011595;28;20229;-72
2023/05/16 02:27:53;;;;;;;350.77;330.17;;;10.80;60.10;;;;;;5011180;28;20839;-72
2023/05/16 02:30:19;;;;;;;412.30;387.77;;;10.80;60.00;;;;;;5017337;28;20414;-72
2023/05/16 02:32:45;;;;;;;388.77;365.70;;;10.80;58.60;;;;;;5017261;28;20629;-72
2023/05/16 02:35:11;;;;;;;391.30;367.20;;;10.80;58.70;;;;;;5017567;28;20180;-72
2023/05/16 02:37:36;;;;;;;379.63;357.87;;;10.80;60.40;;;;;;5017491;28;20222;-72
2023/05/16 02:40:06;;;;;;;399.57;376.07;;;10.80;59.90;;;;;;5017886;28;20504;-72
2023/05/16 02:42:32;;;;;;;390.37;366.87;;;10.90;59.30;;;;;;5017381;28;20411;-72
2023/05/16 02:44:57;;;;;;;369.77;347.57;;;11.00;58.30;;;;;;5017586;28;20470;-72
2023/05/16 02:47:23;;;;;;;409.83;386.33;;;11.00;57.90;;;;;;5017474;28;20275;-72
2023/05/16 02:49:51;;;;;;;373.37;350.87;;;11.00;57.90;;;;;;5017542;28;20594;-72
2023/05/16 02:52:17;;;;;;;365.10;342.93;;;11.00;57.90;;;;;;5017370;28;20544;-72
2023/05/16 02:54:42;;;;;;;479.73;449.93;;;11.00;58.50;;;;;;5017784;28;20523;-72
2023/05/16 02:57:08;;;;;;;396.57;373.47;;;11.00;57.90;;;;;;5017745;28;20434;-73
2023/05/16 02:59:35;;;;;;;377.20;354.97;;;11.00;56.20;;;;;;5017415;28;20536;-73
2023/05/16 03:02:00;;;;;;;387.97;365.97;;;11.10;56.20;;;;;;5017165;28;20529;-73
2023/05/16 03:04:26;;;;;;;388.40;366.27;;;11.00;56.50;;;;;;5017264;28;20476;-73
2023/05/16 03:06:52;;;;;;;355.17;334.43;;;11.00;56.20;;;;;;5015978;28;20466;-73
2023/05/16 03:09:18;;;;;;;380.93;358.77;;;11.10;56.70;;;;;;5017471;28;20179;-73
2023/05/16 03:11:44;;;;;;;422.77;396.73;;;11.10;56.30;;;;;;5017263;28;20168;-73
2023/05/16 03:14:09;;;;;;;409.07;385.27;;;11.20;55.00;;;;;;5017378;28;20437;-72
2023/05/16 03:16:37;;;;;;;398.90;375.93;;;11.20;55.00;;;;;;5017246;28;20438;-72
2023/05/16 03:19:06;;;;;;;404.43;381.47;;;11.30;54.00;;;;;;5017413;28;20613;-73
2023/05/16 03:21:31;;;;;;;385.57;363.97;;;11.30;54.10;;;;;;5015702;28;20430;-73
2023/05/16 03:23:57;;;;;;;369.90;349.00;;;11.30;54.40;;;;;;5017302;28;20899;-73
2023/05/16 03:26:26;;;;;;;349.17;328.77;;;11.30;53.60;;;;;;5017292;28;20573;-70
2023/05/16 03:28:52;;;;;;;394.57;371.80;;;11.30;52.60;;;;;;5017293;28;20557;-71
2023/05/16 03:31:18;;;;;;;368.37;347.63;;;11.30;52.50;;;;;;5017255;28;20411;-71
2023/05/16 03:33:43;;;;;;;371.43;350.13;;;11.30;52.50;;;;;;5016925;28;20181;-71
2023/05/16 03:36:10;;;;;;;351.63;330.90;;;11.40;52.60;;;;;;5015485;28;20460;-71
2023/05/16 03:38:35;;;;;;;402.47;379.30;;;11.40;52.60;;;;;;5017323;28;20193;-71
2023/05/16 03:41:01;;;;;;;427.23;401.93;;;11.40;52.60;;;;;;5012746;28;20740;-71
2023/05/16 03:43:27;;;;;;;414.50;387.20;;;11.50;52.60;;;;;;5014155;28;20181;-71
2023/05/16 03:45:53;;;;;;;336.23;315.93;;;11.50;51.00;;;;;;5013918;28;20214;-71
2023/05/16 03:48:18;;;;;;;387.70;365.60;;;11.50;50.40;;;;;;5014015;28;20470;-71
2023/05/16 03:50:44;;;;;;;356.60;336.27;;;11.50;50.20;;;;;;5012634;28;20199;-71
2023/05/16 03:53:10;;;;;;;350.20;329.43;;;11.50;50.50;;;;;;5013740;28;20175;-71
2023/05/16 03:55:36;;;;;;;383.27;361.90;;;11.50;50.60;;;;;;5013695;28;20219;-71
2023/05/16 03:58:02;;;;;;;421.97;395.67;;;11.60;50.20;;;;;;5012321;28;20528;-71
2023/05/16 04:00:27;;;;;;;360.23;338.87;;;11.60;48.90;;;;;;5013545;28;20285;-71
2023/05/16 04:02:53;;;;;;;369.77;346.67;;;11.60;48.30;;;;;;5013353;28;20444;-71
2023/05/16 04:05:18;;;;;;;403.03;378.67;;;11.70;47.80;;;;;;5013371;28;20206;-71
2023/05/16 04:07:44;;;;;;;347.03;326.13;;;11.70;47.90;;;;;;5013395;28;20206;-71
2023/05/16 04:10:10;;;;;;;344.30;324.47;;;11.70;47.40;;;;;;5013594;28;20238;-71
2023/05/16 04:12:36;;;;;;;336.93;317.20;;;11.70;48.60;;;;;;5013182;28;20182;-71
2023/05/16 04:15:03;;;;;;;442.53;415.10;;;11.70;48.50;;;;;;5013297;28;20429;-71
2023/05/16 04:17:28;;;;;;;340.13;319.67;;;11.70;48.40;;;;;;5013294;28;20510;-71
2023/05/16 04:19:54;;;;;;;368.57;347.43;;;11.80;48.00;;;;;;5013205;28;20540;-71
2023/05/16 04:22:21;;;;;;;392.23;369.43;;;11.80;47.40;;;;;;5013037;28;20589;-71
2023/05/16 04:24:47;;;;;;;315.33;296.03;;;11.80;48.00;;;;;;5013208;28;20514;-71
2023/05/16 04:27:13;;;;;;;450.17;419.93;;;11.80;47.90;;;;;;5013444;28;20489;-71
2023/05/16 04:29:39;;;;;;;424.60;399.50;;;11.80;48.00;;;;;;5013030;28;20968;-72
2023/05/16 04:32:06;;;;;;;329.20;308.63;;;11.90;47.60;;;;;;5012790;28;20217;-71
2023/05/16 04:34:32;;;;;;;312.03;291.77;;;11.90;47.30;;;;;;5012914;28;20437;-71
2023/05/16 04:36:58;;;;;;;479.50;450.77;;;11.90;48.00;;;;;;5013192;28;20512;-71
2023/05/16 04:39:24;;;;;;;498.07;465.03;;;11.90;46.50;;;;;;5012801;28;20519;-71
2023/05/16 04:41:50;;;;;;;439.43;412.10;;;11.80;46.90;;;;;;5012615;28;20415;-71
2023/05/16 04:44:16;;;;;;;329.90;308.90;;;11.80;46.90;;;;;;5012605;28;20212;-71
2023/05/16 04:46:41;;;;;;;422.93;397.10;;;11.80;46.80;;;;;;5012597;28;20442;-71
2023/05/16 04:49:07;;;;;;;461.43;432.43;;;11.90;47.00;;;;;;5012605;28;20211;-71
2023/05/16 04:51:33;;;;;;;498.77;465.33;;;11.70;47.60;;;;;;5012323;28;20161;-71
2023/05/16 04:53:59;;;;;;;425.27;399.93;;;11.60;48.40;;;;;;5011311;28;20178;-71
2023/05/16 04:56:28;;;;;;;512.60;479.87;;;11.70;48.20;;;;;;5012532;28;20484;-71
2023/05/16 04:58:53;;;;;;;527.40;493.23;;;11.90;46.60;;;;;;5012522;28;20266;-71
2023/05/16 05:01:19;;;;;;;553.73;515.70;;;11.90;46.50;;;;;;5012971;28;20423;-71
2023/05/16 05:03:56;;;;;;;471.23;438.53;;;11.80;46.70;;;;;;5012485;28;20242;-71
2023/05/16 05:06:22;;;;;;;420.40;393.87;;;11.90;46.30;;;;;;5012764;28;20222;-71
2023/05/16 05:09:19;;;;;;;627.30;582.43;;;11.90;45.00;;;;;;5011131;28;20433;-71
2023/05/16 05:12:22;;;;;;;427.83;398.70;;;12.00;45.60;;;;;;5012655;28;20180;-71
2023/05/16 05:14:48;;;;;;;311.87;289.97;;;12.10;44.20;;;;;;5002886;28;20425;-71
2023/05/16 05:17:13;;;;;;;452.13;423.27;;;12.10;43.70;;;;;;5012373;28;20492;-71
2023/05/16 05:19:39;;;;;;;503.30;471.90;;;12.10;43.20;;;;;;5011951;28;20274;-71
2023/05/16 05:22:04;;;;;;;495.63;463.83;;;12.00;43.10;;;;;;5011778;28;20187;-71
2023/05/16 05:24:30;;;;;;;524.07;489.87;;;12.00;45.50;;;;;;5011892;28;20206;-71
2023/05/16 05:26:56;;;;;;;490.97;461.47;;;11.90;44.30;;;;;;5011854;28;20199;-71
2023/05/16 05:29:21;;;;;;;494.47;462.40;;;11.90;44.70;;;;;;5012036;28;20260;-71
2023/05/16 05:31:47;;;;;;;475.90;443.90;;;11.80;45.10;;;;;;5011643;28;20449;-71
2023/05/16 05:34:13;;;;;;;424.20;396.43;;;11.90;44.60;;;;;;5011838;28;20169;-70
2023/05/16 05:36:38;;;;;;;451.27;423.80;;;11.90;45.00;;;;;;5011707;28;20211;-71
2023/05/16 05:39:05;;;;;;;537.70;501.53;;;11.80;45.40;;;;;;5011718;28;20180;-71
2023/05/16 05:41:30;;;;;;;540.60;504.00;;;11.90;45.60;;;;;;5011514;28;20179;-70
2023/05/16 05:43:56;;;;;;;550.57;513.23;;;11.90;46.50;;;;;;5011520;28;20411;-70
2023/05/16 05:46:24;;;;;;;593.20;552.40;;;11.80;47.00;;;;;;5011448;28;20207;-70
2023/05/16 05:48:49;;;;;;;631.13;585.70;;;11.90;47.40;;;;;;5010274;28;20175;-70
2023/05/16 05:51:16;;;;;;;622.83;578.07;;;12.00;46.80;;;;;;5011427;28;20446;-70
2023/05/16 05:53:42;;;;;;;484.37;450.90;;;12.10;46.20;;;;;;5011316;28;20168;-70
2023/05/16 05:56:08;;;;;;;472.93;441.50;;;12.10;45.50;;;;;;5011177;28;21010;-70
2023/05/16 05:58:33;;;;;;;519.73;484.13;;;12.10;44.50;;;;;;5011467;28;20413;-70
2023/05/16 06:00:59;;;;;;;475.40;444.07;;;12.20;44.50;;;;;;5011483;28;20263;-70
2023/05/16 06:03:25;;;;;;;400.80;374.73;;;12.20;44.10;;;;;;5010824;28;20179;-71
2023/05/16 06:05:50;;;;;;;568.93;529.70;;;12.10;44.90;;;;;;5011693;28;20628;-71
2023/05/16 06:08:16;;;;;;;461.17;432.43;;;12.10;45.10;;;;;;5011870;28;20185;-70
2023/05/16 06:10:42;;;;;;;633.47;589.07;;;12.10;45.50;;;;;;5011507;28;20359;-70
2023/05/16 06:13:07;;;;;;;597.27;556.37;;;12.10;46.60;;;;;;5011337;28;20195;-70
2023/05/16 06:15:33;;;;;;;503.53;469.23;;;12.30;45.30;;;;;;5012523;28;20252;-70
2023/05/16 06:17:58;;;;;;;543.87;509.00;;;12.10;48.30;;;;;;5012353;28;20199;-70
2023/05/16 06:20:24;;;;;;;541.33;504.43;;;12.10;48.50;;;;;;5011483;28;20547;-70
2023/05/16 06:22:49;;;;;;;520.27;483.90;;;12.10;49.30;;;;;;5011975;28;20178;-70
2023/05/16 06:25:15;;;;;;;530.47;494.90;;;12.20;49.40;;;;;;5011673;28;20246;-70
2023/05/16 06:27:41;;;;;;;594.17;554.97;;;12.20;48.10;;;;;;5011275;28;20274;-70
2023/05/16 06:30:07;;;;;;;338.60;314.17;;;12.20;47.90;;;;;;5011276;28;20222;-71
2023/05/16 06:32:33;;;;;;;508.63;473.70;;;12.20;48.60;;;;;;5010924;28;20207;-70
2023/05/16 06:34:58;;;;;;;422.80;394.27;;;12.20;48.30;;;;;;5011468;28;20862;-69
2023/05/16 06:37:25;;;;;;;375.23;350.13;;;12.20;48.30;;;;;;5011269;28;20217;-69
2023/05/16 06:39:50;;;;;;;692.50;643.20;;;12.30;48.20;;;;;;5011304;28;20214;-69
2023/05/16 06:42:16;;;;;;;527.57;493.60;;;12.20;48.20;;;;;;5010970;28;20415;-69
2023/05/16 06:44:41;;;;;;;498.90;465.50;;;12.20;48.80;;;;;;5011386;28;20560;-71
2023/05/16 06:47:07;;;;;;;554.50;517.53;;;12.10;50.70;;;;;;5013020;28;20210;-69
2023/05/16 06:49:33;;;;;;;597.00;556.33;;;12.00;51.60;;;;;;5013970;28;20215;-69
2023/05/16 06:51:59;;;;;;;370.87;346.57;;;12.10;52.20;;;;;;5010700;28;20637;-70
2023/05/16 06:54:24;;;;;;;538.70;502.47;;;12.20;51.70;;;;;;5011772;28;20446;-70
2023/05/16 06:56:50;;;;;;;571.83;534.30;;;12.20;51.20;;;;;;5010753;28;20561;-70
2023/05/16 06:59:15;;;;;;;550.63;512.37;;;12.20;50.30;;;;;;5011347;28;20525;-71
2023/05/16 07:01:41;;;;;;;527.60;494.53;;;12.30;50.10;;;;;;5011320;28;20179;-70
2023/05/16 07:04:07;;;;;;;519.80;485.37;;;12.30;49.70;;;;;;5010953;28;20573;-72
2023/05/16 07:06:32;;;;;;;645.37;600.60;;;12.30;49.90;;;;;;5009678;28;20329;-71
2023/05/16 07:08:58;;;;;;;547.53;510.50;;;12.20;50.90;;;;;;5003623;28;20653;-71
2023/05/16 07:11:23;;;;;;;536.43;501.47;;;12.20;50.00;;;;;;5010954;28;20186;-71
2023/05/16 07:13:49;;;;;;;578.03;538.80;;;12.20;50.90;;;;;;5010786;28;20177;-71
2023/05/16 07:16:15;;;;;;;526.00;491.03;;;12.20;51.30;;;;;;5013091;28;20204;-71
2023/05/16 07:18:40;;;;;;;681.87;634.07;;;12.30;51.10;;;;;;5014511;28;20187;-71
2023/05/16 07:21:06;;;;;;;621.20;579.53;;;12.40;52.00;;;;;;5014278;28;20261;-71
2023/05/16 07:23:31;;;;;;;581.63;541.40;;;12.50;49.40;;;;;;5013516;28;20653;-71
2023/05/16 07:25:57;;;;;;;645.97;600.50;;;12.50;49.50;;;;;;5001363;28;20230;-71
2023/05/16 07:28:23;;;;;;;559.37;522.27;;;12.50;50.40;;;;;;4994662;28;20177;-72
2023/05/16 07:30:48;;;;;;;577.73;539.03;;;12.50;50.40;;;;;;5008241;28;20427;-71
2023/05/16 07:33:14;;;;;;;607.87;565.70;;;12.50;48.70;;;;;;5013939;28;20179;-71
2023/05/16 07:35:40;;;;;;;686.57;638.47;;;12.40;50.30;;;;;;5013854;28;20180;-71
2023/05/16 07:38:05;;;;;;;562.87;524.63;;;12.50;50.00;;;;;;5014111;28;20241;-71
2023/05/16 07:40:31;;;;;;;597.93;556.73;;;12.40;48.50;;;;;;5014229;28;20189;-72
2023/05/16 07:42:56;;;;;;;593.67;553.50;;;12.40;52.90;;;;;;5013859;28;20587;-72
2023/05/16 07:45:22;;;;;;;603.90;562.83;;;12.30;53.90;;;;;;5003149;28;20201;-71
2023/05/16 07:47:48;;;;;;;670.90;627.13;;;12.20;53.30;;;;;;4994370;28;20245;-71
2023/05/16 07:50:13;;;;;;;602.80;561.13;;;12.20;53.30;;;;;;4994188;28;20545;-71
2023/05/16 07:52:39;;;;;;;375.97;352.67;;;12.10;55.30;;;;;;4993886;28;20183;-71
2023/05/16 07:55:05;;;;;;;598.47;559.97;;;12.30;55.70;;;;;;5011712;28;20289;-72
2023/05/16 07:57:30;;;;;;;585.47;545.33;;;12.20;54.50;;;;;;5014614;28;20211;-72
2023/05/16 07:59:56;;;;;;;597.43;558.30;;;12.10;56.50;;;;;;5014359;28;20890;-71
2023/05/16 08:02:24;;;;;;;446.03;419.43;;;12.00;55.80;;;;;;5013309;28;20576;-72
2023/05/16 08:04:50;;;;;;;559.40;522.77;;;12.00;56.70;;;;;;4993900;28;20247;-70
2023/05/16 08:07:16;;;;;;;598.80;558.20;;;12.00;57.20;;;;;;4994013;28;20443;-70
2023/05/16 08:09:41;;;;;;;568.27;530.17;;;12.00;57.50;;;;;;4994096;28;20611;-71
2023/05/16 08:12:07;;;;;;;609.63;570.67;;;12.10;58.90;;;;;;4993546;28;20530;-71
2023/05/16 08:14:33;;;;;;;512.20;478.60;;;12.10;58.10;;;;;;5011688;28;20281;-71
2023/05/16 08:16:59;;;;;;;634.83;591.27;;;12.00;59.10;;;;;;5013189;28;20470;-71
2023/05/16 08:19:25;;;;;;;559.17;522.20;;;11.90;59.70;;;;;;5012895;28;20218;-72
2023/05/16 08:21:50;;;;;;;513.00;480.47;;;11.90;60.20;;;;;;5013187;28;20461;-72
2023/05/16 08:24:16;;;;;;;495.17;464.53;;;12.00;61.70;;;;;;5013135;28;20427;-72
2023/05/16 08:26:42;;;;;;;541.47;506.40;;;12.00;62.20;;;;;;5012695;28;20205;-71
2023/05/16 08:29:07;;;;;;;590.07;551.50;;;12.00;66.90;;;;;;5012553;28;20552;-71
2023/05/16 08:31:33;;;;;;;695.67;647.70;;;12.00;66.20;;;;;;5020746;28;20226;-72
2023/05/16 08:34:00;;;;;;;571.87;535.00;;;12.10;69.10;;;;;;5030179;28;20260;-71
2023/05/16 08:36:27;;;;;;;454.87;425.17;;;;;;;;;;5032483;28;20244;-71
2023/05/16 08:38:53;;;;;;;558.50;522.70;;;11.90;42.40;;;;;;5032713;28;20760;-77
2023/05/16 08:41:20;;;;;;;730.37;669.57;;;11.90;40.00;;;;;;4993107;28;20433;-71
2023/05/16 08:43:46;;;;;;;458.70;430.17;;;11.90;38.80;;;;;;5007260;28;20457;-71
2023/05/16 08:46:12;;;;;;;529.47;496.57;;;11.80;40.20;;;;;;5011285;28;20519;-71
2023/05/16 08:48:42;;;;;;;570.87;535.17;;;11.80;39.10;;;;;;5012618;28;20186;-72
2023/05/16 08:51:09;;;;;;;624.33;581.77;;;11.80;39.10;;;;;;5011308;28;20189;-71
2023/05/16 08:53:42;;;;;;;582.90;542.43;;;11.80;37.80;;;;;;5012581;28;20410;-71
2023/05/16 08:56:09;;;;;;;633.03;590.80;;;11.70;35.80;;;;;;5012683;28;20457;-71
2023/05/16 08:58:35;;;;;;;530.60;496.57;;;11.80;36.80;;;;;;5012831;28;20429;-71
2023/05/16 09:01:05;;;;;;;625.27;583.77;;;11.80;35.50;;;;;;5012744;28;20795;-71
2023/05/16 09:03:31;;;;;;;508.33;475.90;;;11.90;34.60;;;;;;5012271;28;20423;-71
2023/05/16 09:05:57;;;;;;;569.77;530.73;;;11.90;36.50;;;;;;5012156;28;20550;-70
2023/05/16 09:08:23;;;;;;;509.70;478.27;;;11.90;37.70;;;;;;5012454;28;20190;-71
2023/05/16 09:10:48;;;;;;;546.97;510.03;;;11.90;37.10;;;;;;5012464;28;20214;-70
2023/05/16 09:13:14;;;;;;;519.53;485.83;;;11.90;37.90;;;;;;5012154;28;20450;-70
2023/05/16 09:15:40;;;;;;;631.40;590.80;;;11.80;39.50;;;;;;5011960;28;20306;-71
2023/05/16 09:18:11;;;;;;;588.50;550.07;;;11.80;39.50;;;;;;5011912;28;20184;-71
2023/05/16 09:20:45;;;;;;;552.10;516.83;;;11.70;39.50;;;;;;5012151;28;20454;-71
2023/05/16 09:23:10;;;;;;;538.73;503.83;;;11.70;40.00;;;;;;5011742;28;20632;-71
2023/05/16 09:25:38;;;;;;;500.37;469.03;;;11.80;40.90;;;;;;5011719;28;21044;-71
2023/05/16 09:28:04;;;;;;;649.23;607.07;;;11.80;42.00;;;;;;5011958;28;20654;-70
2023/05/16 09:30:33;;;;;;;584.97;547.27;;;11.70;41.60;;;;;;5012217;28;20419;-71
2023/05/16 09:32:59;;;;;;;524.80;492.17;;;11.70;42.10;;;;;;5011615;28;20180;-71
2023/05/16 09:35:25;;;;;;;626.17;584.33;;;11.70;42.10;;;;;;5011724;28;20420;-70
2023/05/16 09:37:52;;;;;;;521.33;488.23;;;11.70;42.80;;;;;;5011222;28;20196;-71
2023/05/16 09:40:21;;;;;;;413.47;388.53;;;11.60;43.50;;;;;;5011446;28;20435;-70
2023/05/16 09:42:51;;;;;;;431.20;404.37;;;11.60;45.00;;;;;;5011358;28;20585;-70
2023/05/16 09:45:16;;;;;;;610.37;570.47;;;11.70;47.20;;;;;;5011782;28;20476;-70
2023/05/16 09:47:47;;;;;;;567.13;530.70;;;11.80;48.90;;;;;;5011754;28;20840;-70
2023/05/16 09:50:15;;;;;;;607.73;568.03;;;11.80;33.40;;;;;;5011627;28;20192;-70
2023/05/16 09:52:42;;;;;;;585.43;547.37;;;11.90;34.80;;;;;;5011554;28;20425;-70
2023/05/16 09:55:09;;;;;;;552.93;516.47;;;12.00;34.50;;;;;;5011488;28;20832;-71
2023/05/16 09:57:40;;;;;;;483.53;449.50;;;12.00;34.70;;;;;;5011755;28;20507;-71
2023/05/16 10:00:09;;;;;;;539.47;505.37;;;12.10;34.60;;;;;;5011378;28;20832;-70
2023/05/16 10:02:36;;;;;;;561.53;523.63;;;12.10;34.70;;;;;;5011183;28;20432;-70
2023/05/16 10:05:01;;;;;;;578.63;540.67;;;12.10;32.80;;;;;;5011445;28;20546;-71
2023/05/16 10:07:29;;;;;;;541.50;507.10;;;12.00;34.10;;;;;;5011486;28;20531;-70
2023/05/16 10:09:55;;;;;;;585.43;547.17;;;11.90;32.70;;;;;;5011539;28;20311;-70
2023/05/16 10:12:28;;;;;;;625.50;583.97;;;12.00;33.30;;;;;;5011233;28;20415;-70
2023/05/16 10:14:54;;;;;;;615.67;575.80;;;11.90;34.40;;;;;;5011190;28;20522;-71
2023/05/16 10:17:20;;;;;;;632.07;590.73;;;12.00;34.20;;;;;;5011350;28;20947;-70
2023/05/16 10:19:47;;;;;;;541.53;507.73;;;11.90;32.90;;;;;;5011481;28;20182;-69
2023/05/16 10:22:13;;;;;;;566.00;529.37;;;11.90;32.70;;;;;;5010962;28;20421;-69
2023/05/16 10:25:05;;;;;;;597.30;559.27;;;11.90;33.40;;;;;;5010018;28;20471;-68
2023/05/16 10:27:32;;;;;;;456.40;427.17;;;11.90;34.40;;;;;;5011122;28;20464;-68
2023/05/16 10:29:58;;;;;;;523.27;488.20;;;12.00;33.70;;;;;;5011684;28;20426;-70
2023/05/16 10:32:26;;;;;;;357.87;333.00;;;11.90;33.80;;;;;;5011393;28;20543;-69
2023/05/16 10:34:55;;;;;;;442.80;414.57;;;11.80;33.70;;;;;;5011348;28;20428;-70
2023/05/16 10:37:21;;;;;;;560.17;524.83;;;11.80;34.30;;;;;;5011034;28;20447;-71
2023/05/16 10:39:47;;;;;;;659.83;616.30;;;11.80;34.70;;;;;;5004458;28;20925;-69
2023/05/16 10:42:17;;;;;;;580.23;542.30;;;11.80;35.50;;;;;;5007774;28;20437;-69
2023/05/16 10:44:42;;;;;;;519.13;484.33;;;11.80;34.80;;;;;;5011266;28;20950;-68
2023/05/16 10:47:08;;;;;;;287.80;267.90;;;11.80;35.10;;;;;;5009727;28;20449;-69
2023/05/16 10:49:33;;;;;;;576.03;538.27;;;11.80;36.20;;;;;;5011825;28;20194;-68
2023/05/16 10:52:17;;;;;;;523.30;489.60;;;11.90;35.50;;;;;;5014501;28;20266;-67
2023/05/16 10:54:50;;;;;;;546.30;509.90;;;11.90;35.40;;;;;;5015164;28;20183;-69
2023/05/16 10:57:22;;;;;;;536.57;503.43;;;11.90;35.40;;;;;;5014995;28;20461;-69
2023/05/16 10:59:50;;;;;;;433.83;405.70;;;11.90;35.30;;;;;;5015036;28;20438;-69
2023/05/16 11:02:45;;;;;;;451.03;421.43;;;11.90;35.70;;;;;;5015157;28;20425;-68
2023/05/16 11:05:16;;;;;;;617.93;578.33;;;12.00;35.70;;;;;;4990460;28;20473;-68
2023/05/16 11:07:42;;;;;;;658.80;615.70;;;12.00;35.00;;;;;;5014885;28;20462;-68
2023/05/16 11:10:13;;;;;;;559.17;523.53;;;12.10;35.90;;;;;;5014735;28;20923;-67
2023/05/16 11:12:44;;;;;;;568.83;531.40;;;12.00;35.60;;;;;;5014502;28;20188;-68
2023/05/16 11:15:22;;;;;;;532.73;497.03;;;12.10;36.10;;;;;;5014339;28;20984;-68
2023/05/16 11:17:48;;;;;;;491.90;462.00;;;12.00;36.20;;;;;;5014683;28;20759;-68
2023/05/16 11:20:33;;;;;;;724.13;674.53;;;11.90;37.00;;;;;;5014585;28;20437;-67
2023/05/16 11:23:20;;;;;;;663.37;618.07;;;11.90;37.50;;;;;;5014232;28;20213;-68
2023/05/16 11:25:53;;;;;;;535.00;500.27;;;11.90;37.90;;;;;;5014462;28;20522;-68
2023/05/16 11:28:20;;;;;;;469.30;437.43;;;11.90;38.00;;;;;;5014416;28;20448;-69
2023/05/16 11:30:55;;;;;;;607.60;567.43;;;12.00;37.80;;;;;;5014338;28;20425;-72
2023/05/16 11:33:22;;;;;;;528.67;493.03;;;12.00;37.80;;;;;;5013957;28;20483;-71
2023/05/16 11:36:07;;;;;;;519.90;485.33;;;12.10;38.10;;;;;;5013954;28;20482;-71
2023/05/16 11:38:34;;;;;;;608.53;567.90;;;12.10;37.60;;;;;;5014009;28;20431;-70
2023/05/16 11:41:07;;;;;;;491.33;459.57;;;12.20;37.50;;;;;;5024586;23;20573;-71
2023/05/16 11:43:44;;;;;;;671.40;626.87;;;12.30;37.50;;;;;;4996722;28;20424;-71
2023/05/16 11:46:14;;;;;;;596.07;556.57;;;12.40;37.00;;;;;;4997126;28;20534;-70
2023/05/16 11:48:40;;;;;;;654.70;609.60;;;12.70;35.50;;;;;;5005169;28;20415;-70
2023/05/16 11:51:06;;;;;;;650.67;607.03;;;12.90;34.70;;;;;;5001166;28;20446;-70
2023/05/16 11:53:32;;;;;;;700.37;652.23;;;13.00;33.60;;;;;;5015380;28;20168;-70
2023/05/16 11:56:00;;;;;;;631.93;587.47;;;13.10;33.10;;;;;;5015392;28;20426;-70
2023/05/16 11:58:26;;;;;;;620.20;578.00;;;13.30;32.30;;;;;;5015283;28;20422;-68
2023/05/16 12:00:52;;;;;;;504.33;470.13;;;13.40;31.20;;;;;;5014618;28;20446;-69
2023/05/16 12:03:19;;;;;;;653.60;609.40;;;13.40;31.00;;;;;;5014408;28;20591;-71
2023/05/16 12:05:59;;;;;;;785.80;731.13;;;13.60;29.80;;;;;;5027918;28;20237;-70
2023/05/16 12:08:25;;;;;;;669.50;622.93;;;13.60;30.40;;;;;;5034665;28;20425;-67
2023/05/16 12:10:52;;;;;;;650.13;604.77;;;13.50;29.10;;;;;;5033433;28;20858;-68
2023/05/16 12:13:20;;;;;;;546.73;509.30;;;13.50;29.20;;;;;;5032966;28;20170;-67